createdAt,value
2024-01-06T00:01:23.759Z,100978.73
2024-01-06T00:03:52.242Z,100979.49
2024-01-06T00:06:20.555Z,100980.00
2024-01-06T00:08:55.372Z,100979.19
2024-01-06T00:11:24.606Z,100979.65
2024-01-06T00:13:52.777Z,100975.38
2024-01-06T00:16:21.782Z,100972.79
2024-01-06T00:18:50.234Z,100975.11
2024-01-06T00:21:18.653Z,100965.46
2024-01-06T00:23:47.078Z,100966.55
2024-01-06T00:26:15.239Z,100962.67
2024-01-06T00:28:43.691Z,100967.80
2024-01-06T00:31:12.032Z,100964.85
2024-01-06T00:33:40.577Z,100971.99
2024-01-06T00:36:09.458Z,100969.45
2024-01-06T00:38:38.051Z,100965.90
2024-01-06T00:41:06.520Z,100965.19
2024-01-06T00:43:34.725Z,100963.60
2024-01-06T00:46:02.994Z,100968.60
2024-01-06T00:48:31.490Z,100965.14
2024-01-06T00:50:59.917Z,100959.95
2024-01-06T00:53:28.420Z,100952.38
2024-01-06T00:55:56.519Z,100948.46
2024-01-06T00:58:24.793Z,100945.23
2024-01-06T01:00:53.026Z,100946.42
2024-01-06T01:03:21.554Z,100938.67
2024-01-06T01:05:50.332Z,100936.89
2024-01-06T01:08:19.235Z,100938.84
2024-01-06T01:10:47.406Z,100936.39
2024-01-06T01:13:15.600Z,100935.89
2024-01-06T01:15:43.837Z,100938.20
2024-01-06T01:18:12.271Z,100935.66
2024-01-06T01:20:42.974Z,100930.48
2024-01-06T01:23:11.295Z,100928.52
2024-01-06T01:25:39.751Z,100919.27
2024-01-06T01:28:08.173Z,100920.16
2024-01-06T01:30:36.717Z,100921.35
2024-01-06T01:33:05.734Z,100912.39
2024-01-06T01:35:34.251Z,100910.34
2024-01-06T01:38:02.409Z,100907.23
2024-01-06T01:40:30.524Z,100894.93
2024-01-06T01:42:58.705Z,100893.27
2024-01-06T01:45:27.135Z,100890.34
2024-01-06T01:47:55.468Z,100884.11
2024-01-06T01:50:24.394Z,100872.77
2024-01-06T01:52:53.092Z,100869.22
2024-01-06T01:55:21.866Z,100868.11
2024-01-06T01:57:50.265Z,100861.38
2024-01-06T02:00:19.063Z,100860.48
2024-01-06T02:02:48.065Z,100860.00
2024-01-06T02:05:16.322Z,100869.02
2024-01-06T02:07:44.587Z,100869.03
2024-01-06T02:10:13.012Z,100869.23
2024-01-06T02:12:41.375Z,100859.50
2024-01-06T02:15:10.375Z,100852.73
2024-01-06T02:17:41.152Z,100850.15
2024-01-06T02:20:10.823Z,100848.61
2024-01-06T02:22:39.000Z,100845.50
2024-01-06T02:25:13.677Z,100847.36
2024-01-06T02:27:42.310Z,100838.04
2024-01-06T02:30:11.491Z,100836.20
2024-01-06T02:32:39.984Z,100834.06
2024-01-06T02:35:08.998Z,100834.20
2024-01-06T02:37:37.322Z,100837.55
2024-01-06T02:40:06.169Z,100842.51
2024-01-06T02:42:34.503Z,100849.41
2024-01-06T02:45:02.928Z,100841.78
2024-01-06T02:47:31.062Z,100837.80
2024-01-06T02:49:59.588Z,100838.66
2024-01-06T02:52:27.894Z,100823.25
2024-01-06T02:54:56.351Z,100820.83
2024-01-06T02:57:24.888Z,100825.66
2024-01-06T02:59:53.421Z,100823.05
2024-01-06T03:02:21.745Z,100822.92
2024-01-06T03:04:50.543Z,100823.69
2024-01-06T03:07:18.811Z,100821.52
2024-01-06T03:09:47.243Z,100822.80
2024-01-06T03:12:15.788Z,100818.67
2024-01-06T03:14:44.176Z,100814.15
2024-01-06T03:17:12.760Z,100816.27
2024-01-06T03:19:41.242Z,100806.56
2024-01-06T03:22:09.668Z,100800.21
2024-01-06T03:24:38.375Z,100794.17
2024-01-06T03:27:06.561Z,100795.77
2024-01-06T03:29:34.707Z,100788.67
2024-01-06T03:32:03.085Z,100790.35
2024-01-06T03:34:31.514Z,100792.09
2024-01-06T03:36:59.958Z,100789.73
2024-01-06T03:39:28.309Z,100791.41
2024-01-06T03:41:56.808Z,100801.10
2024-01-06T03:44:25.115Z,100807.88
2024-01-06T03:46:53.477Z,100812.42
2024-01-06T03:49:22.197Z,100817.08
2024-01-06T03:51:50.771Z,100809.66
2024-01-06T03:54:19.122Z,100811.02
2024-01-06T03:56:47.701Z,100802.67
2024-01-06T03:59:16.017Z,100798.98
2024-01-06T04:01:44.385Z,100799.98
2024-01-06T04:04:13.790Z,100795.73
2024-01-06T04:06:42.329Z,100797.98
2024-01-06T04:09:10.967Z,100800.85
2024-01-06T04:11:39.227Z,100802.48
2024-01-06T04:14:07.640Z,100801.85
2024-01-06T04:16:35.936Z,100809.20
2024-01-06T04:19:04.246Z,100812.27
2024-01-06T04:21:32.617Z,100805.95
2024-01-06T04:24:01.297Z,100801.65
2024-01-06T04:26:29.558Z,100806.30
2024-01-06T04:28:57.779Z,100803.86
2024-01-06T04:31:26.299Z,100806.59
2024-01-06T04:33:54.996Z,100800.48
2024-01-06T04:36:23.529Z,100802.73
2024-01-06T04:38:51.999Z,100800.14
2024-01-06T04:41:20.194Z,100797.01
2024-01-06T04:43:48.536Z,100794.75
2024-01-06T04:46:16.976Z,100800.35
2024-01-06T04:48:45.632Z,100799.35
2024-01-06T04:51:14.820Z,100796.11
2024-01-06T04:53:43.298Z,100795.90
2024-01-06T04:56:11.689Z,100799.84
2024-01-06T04:58:40.186Z,100799.52
2024-01-06T05:01:09.629Z,100795.39
2024-01-06T05:03:38.412Z,100796.20
2024-01-06T05:06:06.731Z,100793.23
2024-01-06T05:08:34.947Z,100787.54
2024-01-06T05:11:03.228Z,100785.19
2024-01-06T05:13:31.931Z,100784.59
2024-01-06T05:16:00.204Z,100783.64
2024-01-06T05:18:28.926Z,100782.95
2024-01-06T05:20:58.191Z,100778.48
2024-01-06T05:23:26.523Z,100781.94
2024-01-06T05:25:54.932Z,100781.83
2024-01-06T05:28:23.057Z,100780.15
2024-01-06T05:30:51.530Z,100779.79
2024-01-06T05:33:20.072Z,100780.35
2024-01-06T05:35:48.590Z,100782.57
2024-01-06T05:38:18.306Z,100788.60
2024-01-06T05:40:46.464Z,100796.53
2024-01-06T05:43:14.787Z,100797.79
2024-01-06T05:45:43.290Z,100799.74
2024-01-06T05:48:12.274Z,100794.96
2024-01-06T05:50:42.152Z,100792.27
2024-01-06T05:53:11.896Z,100793.62
2024-01-06T05:55:40.087Z,100794.10
2024-01-06T05:58:08.264Z,100792.64
2024-01-06T06:00:36.828Z,100793.65
2024-01-06T06:03:06.177Z,100790.23
2024-01-06T06:05:34.868Z,100788.64
2024-01-06T06:08:03.091Z,100789.82
2024-01-06T06:10:42.103Z,100793.82
2024-01-06T06:13:12.263Z,100789.49
2024-01-06T06:15:40.749Z,100791.27
2024-01-06T06:18:10.122Z,100791.69
2024-01-06T06:20:39.890Z,100790.76
2024-01-06T06:23:08.318Z,100793.56
2024-01-06T06:25:39.642Z,100796.11
2024-01-06T06:28:07.830Z,100798.65
2024-01-06T06:30:36.557Z,100798.28
2024-01-06T06:33:05.987Z,100784.02
2024-01-06T06:35:34.770Z,100782.48
2024-01-06T06:38:03.481Z,100786.86
2024-01-06T06:40:31.723Z,100782.55
2024-01-06T06:43:00.254Z,100782.13
2024-01-06T06:45:28.758Z,100781.33
2024-01-06T06:47:57.194Z,100782.46
2024-01-06T06:50:25.879Z,100780.61
2024-01-06T06:52:54.233Z,100786.50
2024-01-06T06:55:22.364Z,100777.05
2024-01-06T06:57:50.808Z,100774.54
2024-01-06T07:00:20.199Z,100778.05
2024-01-06T07:02:49.020Z,100776.86
2024-01-06T07:05:18.398Z,100773.70
2024-01-06T07:07:48.002Z,100776.76
2024-01-06T07:10:16.565Z,100777.85
2024-01-06T07:12:44.976Z,100772.74
2024-01-06T07:15:13.414Z,100775.26
2024-01-06T07:17:41.724Z,100769.40
2024-01-06T07:20:10.622Z,100764.21
2024-01-06T07:22:39.162Z,100763.60
2024-01-06T07:25:08.759Z,100761.58
2024-01-06T07:27:37.084Z,100760.79
2024-01-06T07:30:06.189Z,100764.34
2024-01-06T07:32:34.531Z,100757.73
2024-01-06T07:35:07.390Z,100756.80
2024-01-06T07:37:36.489Z,100756.88
2024-01-06T07:40:05.467Z,100758.89
2024-01-06T07:42:33.649Z,100757.02
2024-01-06T07:45:01.982Z,100755.86
2024-01-06T07:47:30.232Z,100760.98
2024-01-06T07:49:58.863Z,100767.34
2024-01-06T07:52:27.325Z,100768.34
2024-01-06T07:54:55.483Z,100763.26
2024-01-06T07:57:23.695Z,100762.55
2024-01-06T07:59:52.589Z,100767.27
2024-01-06T08:02:20.987Z,100761.48
2024-01-06T08:04:49.219Z,100751.76
2024-01-06T08:07:17.823Z,100744.64
2024-01-06T08:09:46.112Z,100738.10
2024-01-06T08:12:14.703Z,100741.45
2024-01-06T08:14:43.028Z,100743.63
2024-01-06T08:17:11.175Z,100741.27
2024-01-06T08:19:39.365Z,100738.33
2024-01-06T08:22:07.645Z,100735.81
2024-01-06T08:24:36.324Z,100734.45
2024-01-06T08:27:05.221Z,100741.80
2024-01-06T08:29:33.539Z,100750.73
2024-01-06T08:32:02.082Z,100748.02
2024-01-06T08:34:33.225Z,100747.79
2024-01-06T08:37:01.916Z,100740.64
2024-01-06T08:39:30.434Z,100735.45
2024-01-06T08:42:01.618Z,100736.92
2024-01-06T08:44:30.321Z,100744.41
2024-01-06T08:46:58.842Z,100744.91
2024-01-06T08:49:27.365Z,100745.98
2024-01-06T08:51:55.893Z,100745.41
2024-01-06T08:54:24.464Z,100746.48
2024-01-06T08:56:52.732Z,100746.52
2024-01-06T08:59:21.454Z,100737.98
2024-01-06T09:01:50.675Z,100740.02
2024-01-06T09:04:19.191Z,100742.83
2024-01-06T09:06:48.461Z,100740.14
2024-01-06T09:09:16.902Z,100729.53
2024-01-06T09:11:45.494Z,100723.04
2024-01-06T09:14:14.256Z,100723.83
2024-01-06T09:16:42.532Z,100720.16
2024-01-06T09:19:10.955Z,100719.45
2024-01-06T09:21:39.380Z,100711.16
2024-01-06T09:24:08.004Z,100706.16
2024-01-06T09:26:37.040Z,100695.29
2024-01-06T09:29:05.333Z,100697.05
2024-01-06T09:31:34.078Z,100695.16
2024-01-06T09:34:04.093Z,100696.08
2024-01-06T09:36:33.300Z,100687.37
2024-01-06T09:39:01.994Z,100679.41
2024-01-06T09:41:30.567Z,100677.91
2024-01-06T09:43:58.994Z,100676.92
2024-01-06T09:46:30.462Z,100671.59
2024-01-06T09:49:00.154Z,100663.94
2024-01-06T09:51:30.190Z,100654.70
2024-01-06T09:54:00.849Z,100654.88
2024-01-06T09:56:30.840Z,100655.58
2024-01-06T09:58:59.398Z,100654.36
2024-01-06T10:01:27.764Z,100636.27
2024-01-06T10:03:56.339Z,100631.02
2024-01-06T10:06:24.563Z,100635.84
2024-01-06T10:08:53.995Z,100635.11
2024-01-06T10:11:24.140Z,100632.69
2024-01-06T10:13:53.283Z,100632.37
2024-01-06T10:16:21.872Z,100629.94
2024-01-06T10:18:53.777Z,100626.64
2024-01-06T10:21:23.967Z,100624.80
2024-01-06T10:23:52.750Z,100622.13
2024-01-06T10:26:21.413Z,100616.44
2024-01-06T10:28:51.554Z,100620.21
2024-01-06T10:31:20.491Z,100617.40
2024-01-06T10:33:49.982Z,100613.89
2024-01-06T10:36:19.384Z,100602.14
2024-01-06T10:38:47.758Z,100593.93
2024-01-06T10:41:17.716Z,100578.05
2024-01-06T10:43:48.334Z,100570.17
2024-01-06T10:46:17.451Z,100563.98
2024-01-06T10:48:47.117Z,100559.27
2024-01-06T10:51:16.648Z,100558.63
2024-01-06T10:53:45.141Z,100551.36
2024-01-06T10:56:13.734Z,100553.27
2024-01-06T10:58:53.297Z,100547.50
2024-01-06T11:01:27.925Z,100548.30
2024-01-06T11:04:00.814Z,100551.00
2024-01-06T11:06:30.492Z,100548.19
2024-01-06T11:09:14.916Z,100542.77
2024-01-06T11:11:44.030Z,100536.25
2024-01-06T11:14:38.615Z,100535.98
2024-01-06T11:17:06.956Z,100526.48
2024-01-06T11:19:35.982Z,100519.60
2024-01-06T11:22:21.507Z,100505.65
2024-01-06T11:24:54.966Z,100495.14
2024-01-06T11:27:31.297Z,100491.77
2024-01-06T11:30:01.841Z,100493.05
2024-01-06T11:32:37.862Z,100487.40
2024-01-06T11:35:17.001Z,100488.20
2024-01-06T11:37:46.477Z,100479.48
2024-01-06T11:40:25.102Z,100486.13
2024-01-06T11:43:10.688Z,100482.61
2024-01-06T11:45:42.641Z,100476.77
2024-01-06T11:48:14.070Z,100473.25
2024-01-06T11:50:42.938Z,100465.88
2024-01-06T11:53:11.919Z,100474.13
2024-01-06T11:55:41.255Z,100471.15
2024-01-06T11:58:09.912Z,100469.33
2024-01-06T12:00:40.892Z,100472.27
2024-01-06T12:03:10.239Z,100474.42
2024-01-06T12:05:39.398Z,100472.16
2024-01-06T12:08:09.285Z,100469.02
2024-01-06T12:10:38.721Z,100469.71
2024-01-06T12:13:13.306Z,100476.41
2024-01-06T12:15:42.841Z,100476.06
2024-01-06T12:18:11.471Z,100470.39
2024-01-06T12:20:40.307Z,100470.87
2024-01-06T12:23:08.638Z,100468.45
2024-01-06T12:25:40.296Z,100468.02
2024-01-06T12:28:10.021Z,100466.27
2024-01-06T12:30:39.929Z,100466.77
2024-01-06T12:33:08.670Z,100468.05
2024-01-06T12:35:37.782Z,100472.58
2024-01-06T12:38:08.430Z,100463.61
2024-01-06T12:40:38.602Z,100466.23
2024-01-06T12:43:07.370Z,100471.94
2024-01-06T12:45:36.011Z,100475.47
2024-01-06T12:48:05.127Z,100469.23
2024-01-06T12:50:33.537Z,100465.79
2024-01-06T12:53:02.593Z,100462.20
2024-01-06T12:55:30.803Z,100454.45
2024-01-06T12:58:02.692Z,100453.98
2024-01-06T13:00:35.436Z,100460.90
2024-01-06T13:03:06.152Z,100461.61
2024-01-06T13:05:34.878Z,100461.58
2024-01-06T13:08:04.159Z,100458.65
2024-01-06T13:10:32.719Z,100466.98
2024-01-06T13:13:01.305Z,100468.56
2024-01-06T13:15:29.661Z,100465.65
2024-01-06T13:17:58.461Z,100460.19
2024-01-06T13:20:26.874Z,100451.11
2024-01-06T13:22:55.307Z,100446.77
2024-01-06T13:25:24.300Z,100449.67
2024-01-06T13:27:53.092Z,100449.70
2024-01-06T13:30:21.742Z,100456.16
2024-01-06T13:32:52.122Z,100455.77
2024-01-06T13:35:21.898Z,100455.52
2024-01-06T13:37:51.829Z,100458.39
2024-01-06T13:40:21.039Z,100460.27
2024-01-06T13:42:51.943Z,100458.52
2024-01-06T13:45:20.445Z,100453.26
2024-01-06T13:47:49.260Z,100457.51
2024-01-06T13:50:18.582Z,100456.67
2024-01-06T13:52:46.942Z,100454.12
2024-01-06T13:55:15.802Z,100455.52
2024-01-06T13:57:44.265Z,100456.06
2024-01-06T14:00:20.931Z,100452.23
2024-01-06T14:02:50.164Z,100453.19
2024-01-06T14:05:20.989Z,100468.14
2024-01-06T14:07:51.974Z,100467.56
2024-01-06T14:10:20.426Z,100468.52
2024-01-06T14:12:50.855Z,100473.09
2024-01-06T14:15:19.239Z,100469.73
2024-01-06T14:17:51.328Z,100471.92
2024-01-06T14:20:20.281Z,100465.21
2024-01-06T14:22:50.031Z,100461.23
2024-01-06T14:25:21.484Z,100460.88
2024-01-06T14:27:50.386Z,100465.47
2024-01-06T14:30:19.079Z,100465.85
2024-01-06T14:32:47.537Z,100463.10
2024-01-06T14:35:17.631Z,100455.73
2024-01-06T14:37:46.158Z,100458.45
2024-01-06T14:40:15.038Z,100459.52
2024-01-06T14:42:43.422Z,100456.91
2024-01-06T14:45:11.801Z,100458.89
2024-01-06T14:47:41.868Z,100465.86
2024-01-06T14:50:10.716Z,100471.41
2024-01-06T14:52:38.872Z,100472.70
2024-01-06T14:55:08.067Z,100472.17
2024-01-06T14:57:36.921Z,100472.45
2024-01-06T15:00:07.013Z,100472.30
2024-01-06T15:02:35.332Z,100466.13
2024-01-06T15:05:05.644Z,100463.63
2024-01-06T15:07:34.223Z,100461.76
2024-01-06T15:10:04.800Z,100468.04
2024-01-06T15:12:33.426Z,100467.55
2024-01-06T15:15:01.774Z,100469.31
2024-01-06T15:17:30.076Z,100472.23
2024-01-06T15:19:58.340Z,100472.45
2024-01-06T15:22:26.918Z,100468.52
2024-01-06T15:24:57.903Z,100468.49
2024-01-06T15:27:27.183Z,100463.98
2024-01-06T15:29:55.429Z,100460.79
2024-01-06T15:32:23.760Z,100456.79
2024-01-06T15:34:52.853Z,100460.13
2024-01-06T15:37:21.397Z,100471.02
2024-01-06T15:39:49.891Z,100483.52
2024-01-06T15:42:18.645Z,100476.66
2024-01-06T15:44:46.915Z,100459.52
2024-01-06T15:47:15.573Z,100459.93
2024-01-06T15:49:44.300Z,100467.09
2024-01-06T15:52:12.739Z,100470.88
2024-01-06T15:54:41.681Z,100462.30
2024-01-06T15:57:11.062Z,100467.95
2024-01-06T15:59:39.357Z,100471.89
2024-01-06T16:02:07.802Z,100471.61
2024-01-06T16:04:36.097Z,100480.80
2024-01-06T16:07:07.157Z,100476.58
2024-01-06T16:09:35.817Z,100474.58
2024-01-06T16:12:07.424Z,100474.31
2024-01-06T16:14:36.754Z,100476.72
2024-01-06T16:17:05.329Z,100474.48
2024-01-06T16:19:34.008Z,100468.20
2024-01-06T16:22:11.409Z,100464.19
2024-01-06T16:24:46.296Z,100463.76
2024-01-06T16:27:15.104Z,100457.95
2024-01-06T16:29:43.603Z,100456.98
2024-01-06T16:32:12.028Z,100453.44
2024-01-06T16:34:42.709Z,100455.10
2024-01-06T16:37:12.316Z,100464.41
2024-01-06T16:39:41.092Z,100474.33
2024-01-06T16:42:09.465Z,100460.67
2024-01-06T16:44:37.841Z,100459.25
2024-01-06T16:47:06.743Z,100460.10
2024-01-06T16:49:35.204Z,100451.34
2024-01-06T16:52:04.238Z,100453.47
2024-01-06T16:54:32.612Z,100465.17
2024-01-06T16:57:01.453Z,100475.55
2024-01-06T16:59:31.595Z,100476.29
2024-01-06T17:02:01.974Z,100469.38
2024-01-06T17:04:31.447Z,100461.52
2024-01-06T17:07:01.024Z,100459.73
2024-01-06T17:09:29.738Z,100467.72
2024-01-06T17:11:58.080Z,100473.63
2024-01-06T17:14:27.179Z,100477.64
2024-01-06T17:16:55.260Z,100486.00
2024-01-06T17:19:23.822Z,100483.34
2024-01-06T17:21:52.203Z,100474.52
2024-01-06T17:24:20.836Z,100472.23
2024-01-06T17:26:49.096Z,100469.91
2024-01-06T17:29:19.572Z,100468.71
2024-01-06T17:31:48.246Z,100472.38
2024-01-06T17:34:16.811Z,100472.66
2024-01-06T17:36:45.109Z,100472.45
2024-01-06T17:39:13.524Z,100467.31
2024-01-06T17:41:50.025Z,100462.45
2024-01-06T17:44:25.567Z,100461.04
2024-01-06T17:46:54.434Z,100455.55
2024-01-06T17:49:22.664Z,100454.98
2024-01-06T17:51:51.299Z,100450.98
2024-01-06T17:54:21.455Z,100449.77
2024-01-06T17:56:50.170Z,100451.23
2024-01-06T17:59:18.614Z,100450.00
2024-01-06T18:01:46.925Z,100442.71
2024-01-06T18:04:15.369Z,100446.33
2024-01-06T18:06:45.012Z,100443.09
2024-01-06T18:09:13.975Z,100440.54
2024-01-06T18:11:43.902Z,100445.01
2024-01-06T18:14:12.834Z,100438.80
2024-01-06T18:16:41.673Z,100432.83
2024-01-06T18:19:10.310Z,100433.41
2024-01-06T18:21:38.899Z,100436.46
2024-01-06T18:24:07.294Z,100437.05
2024-01-06T18:26:35.481Z,100440.56
2024-01-06T18:29:03.896Z,100433.70
2024-01-06T18:31:32.870Z,100434.84
2024-01-06T18:34:01.329Z,100435.61
2024-01-06T18:36:29.987Z,100435.66
2024-01-06T18:38:58.569Z,100429.85
2024-01-06T18:41:27.391Z,100425.35
2024-01-06T18:43:55.606Z,100423.45
2024-01-06T18:46:24.056Z,100423.18
2024-01-06T18:48:52.556Z,100420.95
2024-01-06T18:51:20.874Z,100421.27
2024-01-06T18:53:49.039Z,100416.73
2024-01-06T18:56:17.482Z,100410.08
2024-01-06T18:58:45.593Z,100410.18
2024-01-06T19:01:13.852Z,100407.77
2024-01-06T19:03:44.861Z,100411.20
2024-01-06T19:06:13.183Z,100409.06
2024-01-06T19:08:42.348Z,100409.71
2024-01-06T19:11:10.505Z,100409.08
2024-01-06T19:13:39.677Z,100402.77
2024-01-06T19:16:08.886Z,100395.64
2024-01-06T19:18:37.339Z,100394.76
2024-01-06T19:21:08.037Z,100384.85
2024-01-06T19:23:36.359Z,100389.48
2024-01-06T19:26:05.791Z,100382.20
2024-01-06T19:28:34.412Z,100385.05
2024-01-06T19:31:02.908Z,100386.98
2024-01-06T19:33:31.402Z,100385.80
2024-01-06T19:36:00.090Z,100380.52
2024-01-06T19:38:28.870Z,100371.84
2024-01-06T19:40:57.223Z,100371.41
2024-01-06T19:43:25.917Z,100372.65
2024-01-06T19:45:55.570Z,100370.04
2024-01-06T19:48:24.662Z,100378.02
2024-01-06T19:50:53.697Z,100386.05
2024-01-06T19:53:22.126Z,100393.45
2024-01-06T19:55:50.309Z,100403.17
2024-01-06T19:58:18.593Z,100413.90
2024-01-06T20:00:47.033Z,100418.65
2024-01-06T20:03:15.446Z,100419.83
2024-01-06T20:05:44.390Z,100426.80
2024-01-06T20:08:13.246Z,100423.95
2024-01-06T20:10:41.343Z,100417.14
2024-01-06T20:13:09.786Z,100401.55
2024-01-06T20:15:39.317Z,100398.73
2024-01-06T20:18:07.816Z,100394.05
2024-01-06T20:20:36.414Z,100386.40
2024-01-06T20:23:05.054Z,100382.51
2024-01-06T20:25:33.243Z,100369.38
2024-01-06T20:28:02.139Z,100366.46
2024-01-06T20:30:31.125Z,100365.64
2024-01-06T20:32:59.899Z,100342.28
2024-01-06T20:35:28.556Z,100327.67
2024-01-06T20:37:57.834Z,100324.83
2024-01-06T20:40:27.026Z,100321.05
2024-01-06T20:42:55.412Z,100316.44
2024-01-06T20:45:23.954Z,100320.13
2024-01-06T20:47:53.449Z,100328.72
2024-01-06T20:50:22.208Z,100330.44
2024-01-06T20:52:50.324Z,100329.15
2024-01-06T20:55:18.506Z,100329.05
2024-01-06T20:57:47.613Z,100325.40
2024-01-06T21:00:18.545Z,100320.94
2024-01-06T21:02:46.770Z,100321.42
2024-01-06T21:05:15.698Z,100330.71
2024-01-06T21:07:45.213Z,100331.25
2024-01-06T21:10:13.724Z,100319.05
2024-01-06T21:12:42.175Z,100300.06
2024-01-06T21:15:10.595Z,100296.52
2024-01-06T21:17:39.934Z,100310.86
2024-01-06T21:20:09.820Z,100331.66
2024-01-06T21:22:38.235Z,100345.55
2024-01-06T21:25:07.764Z,100346.30
2024-01-06T21:27:36.972Z,100329.39
2024-01-06T21:30:07.140Z,100324.27
2024-01-06T21:32:35.435Z,100327.98
2024-01-06T21:35:05.260Z,100335.23
2024-01-06T21:37:34.488Z,100331.80
2024-01-06T21:40:08.022Z,100331.27
2024-01-06T21:42:37.209Z,100350.66
2024-01-06T21:45:06.826Z,100346.52
2024-01-06T21:47:35.166Z,100343.23
2024-01-06T21:50:03.814Z,100333.64
2024-01-06T21:52:31.982Z,100321.52
2024-01-06T21:55:00.428Z,100316.36
2024-01-06T21:57:28.784Z,100324.64
2024-01-06T21:59:57.165Z,100325.73
2024-01-06T22:02:25.578Z,100343.04
2024-01-06T22:04:53.945Z,100342.36
2024-01-06T22:07:22.108Z,100330.44
2024-01-06T22:09:50.483Z,100327.08
2024-01-06T22:12:19.107Z,100324.60
2024-01-06T22:14:47.503Z,100336.15
2024-01-06T22:17:16.061Z,100342.72
2024-01-06T22:19:45.117Z,100339.77
2024-01-06T22:22:13.985Z,100339.65
2024-01-06T22:24:45.755Z,100334.27
2024-01-06T22:27:16.154Z,100326.57
2024-01-06T22:29:45.862Z,100332.05
2024-01-06T22:32:14.047Z,100342.40
2024-01-06T22:34:45.734Z,100337.92
2024-01-06T22:37:15.071Z,100331.17
2024-01-06T22:39:44.080Z,100329.21
2024-01-06T22:42:12.556Z,100325.81
2024-01-06T22:44:42.130Z,100316.23
2024-01-06T22:47:10.348Z,100310.59
2024-01-06T22:49:38.739Z,100316.91
2024-01-06T22:52:07.070Z,100315.51
2024-01-06T22:54:36.257Z,100310.26
2024-01-06T22:57:05.343Z,100310.07
2024-01-06T22:59:33.473Z,100322.64
2024-01-06T23:02:01.620Z,100320.93
2024-01-06T23:04:30.361Z,100322.20
2024-01-06T23:06:58.704Z,100333.70
2024-01-06T23:09:27.112Z,100332.61
2024-01-06T23:11:55.526Z,100321.43
2024-01-06T23:14:25.090Z,100322.23
2024-01-06T23:16:53.742Z,100322.45
2024-01-06T23:19:21.992Z,100321.06
2024-01-06T23:21:50.330Z,100309.65
2024-01-06T23:24:19.813Z,100313.59
2024-01-06T23:26:48.454Z,100319.41
2024-01-06T23:29:16.928Z,100320.64
2024-01-06T23:31:45.555Z,100327.82
2024-01-06T23:34:21.901Z,100334.37
2024-01-06T23:37:01.781Z,100328.20
2024-01-06T23:39:30.173Z,100323.54
2024-01-06T23:41:58.506Z,100324.40
2024-01-06T23:44:26.678Z,100329.04
2024-01-06T23:46:55.807Z,100323.71
2024-01-06T23:49:24.283Z,100327.46
2024-01-06T23:51:52.523Z,100326.49
2024-01-06T23:54:21.426Z,100320.42
2024-01-06T23:56:49.779Z,100311.21
2024-01-06T23:59:19.086Z,100320.71
